PWSweather.com
Personal Weather Stations
Station Observations
ISARDEGN48
BittiIT 08021

BittiIT 08021

Lat: 40.4805, Lon: 9.3887

Elevation: 1804

Station Type: La Crosse WS2355

http://meteobitti.altervista.org

High Low Average
Temperature 56.5°F13.6°C 53.2°F11.8°C 54.9°F12.7°C
Dew Point 53.3°F11.8°C 48.5°F9.2°C 51.0°F10.6°C
Winds 20.1 mph 32.3 kmh Calm Calm 9.0 mph S14.5 kmh S
Wind Gusts 25.7 mph41.4 kmh 3.8 mph6.1 kmh 17.0 mph27.4 kmh
Humidity 90% 84% 87%
Pressure 29.69 in1005.4 mb 29.58 in1001.7 mb -
Precipitation 0.02 in0.5 mm - -
Hour Temp Dew Point Humidity Winds Wind Gusts Pressure Precip Precip Rate Daily Precip Total
11:05 AM 54.1°F12.3°C 51.3°F10.7°C 90% 9.6 mph S15.4 kmh S 15.0 mph24.1 kmh 29.65 in1004.1 mb 0.00 in0.0 mm 0.00 in0.0 mm 0.00 in0.0 mm
11:10 AM 54.1°F12.3°C 51.3°F10.7°C 90% 3.8 mph SSW6.1 kmh SSW 15.9 mph25.6 kmh 29.65 in1004.1 mb 0.00 in0.0 mm 0.00 in0.0 mm 0.00 in0.0 mm
11:15 AM 54.1°F12.3°C 51.3°F10.7°C 90% 10.5 mph SSW16.9 kmh SSW 17.4 mph28.0 kmh 29.64 in1003.7 mb 0.00 in0.0 mm 0.00 in0.0 mm 0.00 in0.0 mm
11:20 AM 54.3°F12.4°C 51.4°F10.8°C 90% 5.6 mph SSW9.0 kmh SSW 19.2 mph30.9 kmh 29.64 in1003.7 mb 0.00 in0.0 mm 0.00 in0.0 mm 0.00 in0.0 mm
11:25 AM 54.5°F12.5°C 51.6°F10.9°C 90% 5.1 mph SSW8.2 kmh SSW 19.2 mph30.9 kmh 29.64 in1003.7 mb 0.00 in0.0 mm 0.00 in0.0 mm 0.00 in0.0 mm
11:30 AM 54.5°F12.5°C 51.6°F10.9°C 90% 8.1 mph SSW13.0 kmh SSW 19.0 mph30.6 kmh 29.64 in1003.7 mb 0.00 in0.0 mm 0.00 in0.0 mm 0.00 in0.0 mm
11:35 AM 54.5°F12.5°C 51.6°F10.9°C 90% 2.9 mph SSW4.7 kmh SSW 17.7 mph28.5 kmh 29.64 in1003.7 mb 0.00 in0.0 mm 0.00 in0.0 mm 0.00 in0.0 mm
11:40 AM 54.5°F12.5°C 51.6°F10.9°C 90% 9.8 mph S15.8 kmh S 15.4 mph24.8 kmh 29.64 in1003.7 mb 0.00 in0.0 mm 0.00 in0.0 mm 0.00 in0.0 mm
11:45 AM 54.5°F12.5°C 51.6°F10.9°C 90% 5.1 mph S8.2 kmh S 15.4 mph24.8 kmh 29.64 in1003.7 mb 0.00 in0.0 mm 0.00 in0.0 mm 0.00 in0.0 mm
11:50 AM 54.5°F12.5°C 51.6°F10.9°C 90% 7.8 mph S12.6 kmh S 10.5 mph16.9 kmh 29.63 in1003.4 mb 0.00 in0.0 mm 0.00 in0.0 mm 0.00 in0.0 mm
11:55 AM 54.7°F12.6°C 51.8°F11.0°C 90% 15.9 mph S25.6 kmh S 18.8 mph30.3 kmh 29.63 in1003.4 mb 0.00 in0.0 mm 0.00 in0.0 mm 0.00 in0.0 mm
12:00 PM 54.7°F12.6°C 51.8°F11.0°C 90% 5.4 mph S8.7 kmh S 18.8 mph30.3 kmh 29.63 in1003.4 mb 0.00 in0.0 mm 0.00 in0.0 mm 0.00 in0.0 mm
12:05 PM 54.7°F12.6°C 51.8°F11.0°C 90% 2.0 mph S3.2 kmh S 15.7 mph25.3 kmh 29.63 in1003.4 mb 0.00 in0.0 mm 0.00 in0.0 mm 0.00 in0.0 mm
12:10 PM 54.9°F12.7°C 52.0°F11.1°C 90% 14.3 mph S23.0 kmh S 14.5 mph23.3 kmh 29.62 in1003.0 mb 0.00 in0.0 mm 0.00 in0.0 mm 0.00 in0.0 mm
12:15 PM 55.0°F12.8°C 51.8°F11.0°C 89% 4.7 mph SSW7.6 kmh SSW 14.5 mph23.3 kmh 29.62 in1003.0 mb 0.00 in0.0 mm 0.00 in0.0 mm 0.00 in0.0 mm
12:20 PM 55.2°F12.9°C 52.0°F11.1°C 89% 4.0 mph SSW6.4 kmh SSW 17.2 mph27.7 kmh 29.62 in1003.0 mb 0.00 in0.0 mm 0.00 in0.0 mm 0.00 in0.0 mm
12:25 PM 55.2°F12.9°C 52.0°F11.1°C 89% 5.1 mph SSW8.2 kmh SSW 17.2 mph27.7 kmh 29.61 in1002.7 mb 0.00 in0.0 mm 0.00 in0.0 mm 0.00 in0.0 mm
12:30 PM 55.2°F12.9°C 52.0°F11.1°C 89% 3.1 mph SSW5.0 kmh SSW 18.1 mph29.1 kmh 29.61 in1002.7 mb 0.00 in0.0 mm 0.00 in0.0 mm 0.00 in0.0 mm
12:35 PM 55.4°F13.0°C 51.9°F11.1°C 88% 8.9 mph SSW14.3 kmh SSW 20.1 mph32.3 kmh 29.61 in1002.7 mb 0.00 in0.0 mm 0.00 in0.0 mm 0.00 in0.0 mm
12:40 PM 55.6°F13.1°C 52.1°F11.2°C 88% 17.7 mph SSW28.5 kmh SSW 20.1 mph32.3 kmh 29.61 in1002.7 mb 0.00 in0.0 mm 0.00 in0.0 mm 0.00 in0.0 mm
12:45 PM 55.6°F13.1°C 52.1°F11.2°C 88% 17.2 mph SSW27.7 kmh SSW 22.4 mph36.0 kmh 29.61 in1002.7 mb 0.00 in0.0 mm 0.00 in0.0 mm 0.00 in0.0 mm
12:50 PM 55.6°F13.1°C 52.1°F11.2°C 88% 18.3 mph SSW29.5 kmh SSW 22.4 mph36.0 kmh 29.60 in1002.4 mb 0.00 in0.0 mm 0.00 in0.0 mm 0.00 in0.0 mm
12:55 PM 55.6°F13.1°C 52.1°F11.2°C 88% 12.1 mph SSW19.5 kmh SSW 22.6 mph36.4 kmh 29.61 in1002.7 mb 0.00 in0.0 mm 0.00 in0.0 mm 0.00 in0.0 mm
01:00 PM 55.6°F13.1°C 52.1°F11.2°C 88% 12.3 mph SSW19.8 kmh SSW 23.7 mph38.1 kmh 29.61 in1002.7 mb 0.00 in0.0 mm 0.00 in0.0 mm 0.00 in0.0 mm
01:05 PM 55.4°F13.0°C 51.9°F11.1°C 88% 17.4 mph SSW28.0 kmh SSW 23.7 mph38.1 kmh 29.62 in1003.0 mb 0.00 in0.0 mm 0.00 in0.0 mm 0.00 in0.0 mm
01:10 PM 55.6°F13.1°C 52.1°F11.2°C 88% 13.0 mph SSW20.9 kmh SSW 25.7 mph41.4 kmh 29.61 in1002.7 mb 0.00 in0.0 mm 0.00 in0.0 mm 0.00 in0.0 mm
01:15 PM 55.6°F13.1°C 52.1°F11.2°C 88% 10.7 mph SSW17.2 kmh SSW 25.7 mph41.4 kmh 29.61 in1002.7 mb 0.00 in0.0 mm 0.00 in0.0 mm 0.00 in0.0 mm
01:20 PM 55.6°F13.1°C 52.1°F11.2°C 88% 13.4 mph SSW21.6 kmh SSW 21.9 mph35.2 kmh 29.61 in1002.7 mb 0.00 in0.0 mm 0.00 in0.0 mm 0.00 in0.0 mm
01:25 PM 55.6°F13.1°C 52.1°F11.2°C 88% 6.7 mph SSW10.8 kmh SSW 21.9 mph35.2 kmh 29.60 in1002.4 mb 0.00 in0.0 mm 0.00 in0.0 mm 0.00 in0.0 mm
01:30 PM 55.4°F13.0°C 51.9°F11.1°C 88% 16.3 mph SSW26.2 kmh SSW 19.2 mph30.9 kmh 29.60 in1002.4 mb 0.00 in0.0 mm 0.00 in0.0 mm 0.00 in0.0 mm
01:35 PM 55.4°F13.0°C 51.9°F11.1°C 88% 11.9 mph SSW19.2 kmh SSW 19.2 mph30.9 kmh 29.59 in1002.0 mb 0.00 in0.0 mm 0.00 in0.0 mm 0.00 in0.0 mm
01:40 PM 55.6°F13.1°C 52.1°F11.2°C 88% 6.7 mph SSW10.8 kmh SSW 19.7 mph31.7 kmh 29.59 in1002.0 mb 0.00 in0.0 mm 0.00 in0.0 mm 0.00 in0.0 mm
01:45 PM 55.8°F13.2°C 52.2°F11.2°C 88% 16.6 mph SSW26.7 kmh SSW 19.7 mph31.7 kmh 29.59 in1002.0 mb 0.00 in0.0 mm 0.00 in0.0 mm 0.00 in0.0 mm
01:50 PM 55.8°F13.2°C 52.2°F11.2°C 88% 18.3 mph SSW29.5 kmh SSW 24.2 mph38.9 kmh 29.59 in1002.0 mb 0.00 in0.0 mm 0.00 in0.0 mm 0.00 in0.0 mm
01:55 PM 55.9°F13.3°C 52.4°F11.3°C 88% 15.0 mph SSW24.1 kmh SSW 24.2 mph38.9 kmh 29.60 in1002.4 mb 0.00 in0.0 mm 0.00 in0.0 mm 0.00 in0.0 mm
02:00 PM 55.8°F13.2°C 52.2°F11.2°C 88% 6.5 mph SSW10.5 kmh SSW 23.5 mph37.8 kmh 29.60 in1002.4 mb 0.00 in0.0 mm 0.00 in0.0 mm 0.00 in0.0 mm
02:05 PM 55.8°F13.2°C 52.2°F11.2°C 88% 14.1 mph SSW22.7 kmh SSW 22.4 mph36.0 kmh 29.60 in1002.4 mb 0.00 in0.0 mm 0.00 in0.0 mm 0.00 in0.0 mm
02:10 PM 55.8°F13.2°C 52.2°F11.2°C 88% 9.8 mph SSW15.8 kmh SSW 19.7 mph31.7 kmh 29.60 in1002.4 mb 0.00 in0.0 mm 0.00 in0.0 mm 0.00 in0.0 mm
02:15 PM 55.8°F13.2°C 52.6°F11.4°C 89% 13.9 mph SSW22.4 kmh SSW 20.1 mph32.3 kmh 29.60 in1002.4 mb 0.00 in0.0 mm 0.00 in0.0 mm 0.00 in0.0 mm
02:20 PM 55.6°F13.1°C 52.4°F11.3°C 89% 19.0 mph SSW30.6 kmh SSW 20.1 mph32.3 kmh 29.60 in1002.4 mb 0.00 in0.0 mm 0.00 in0.0 mm 0.00 in0.0 mm
02:25 PM 55.6°F13.1°C 52.7°F11.5°C 90% 15.2 mph SSW24.5 kmh SSW 19.0 mph30.6 kmh 29.59 in1002.0 mb 0.00 in0.0 mm 0.00 in0.0 mm 0.00 in0.0 mm
02:40 PM 55.9°F13.3°C 53.1°F11.7°C 90% 11.4 mph S18.3 kmh S 13.6 mph21.9 kmh 29.59 in1002.0 mb 0.00 in0.0 mm 0.00 in0.0 mm 0.00 in0.0 mm
02:45 PM 55.9°F13.3°C 52.7°F11.5°C 89% 14.1 mph S22.7 kmh S 22.4 mph36.0 kmh 29.59 in1002.0 mb 0.00 in0.0 mm 0.00 in0.0 mm 0.00 in0.0 mm
02:50 PM 55.9°F13.3°C 52.7°F11.5°C 89% 9.4 mph S15.1 kmh S 22.4 mph36.0 kmh 29.59 in1002.0 mb 0.00 in0.0 mm 0.00 in0.0 mm 0.00 in0.0 mm
02:55 PM 56.1°F13.4°C 52.9°F11.6°C 89% 20.1 mph S32.3 kmh S 20.4 mph32.8 kmh 29.59 in1002.0 mb 0.02 in0.5 mm 0.24 in6.1 mm 0.02 in0.5 mm
03:00 PM 56.1°F13.4°C 53.2°F11.8°C 90% 15.7 mph SSW25.3 kmh SSW 20.1 mph32.3 kmh 29.59 in1002.0 mb 0.02 in0.5 mm 0.00 in0.0 mm 0.02 in0.5 mm
03:05 PM 56.1°F13.4°C 53.2°F11.8°C 90% 12.1 mph S19.5 kmh S 21.9 mph35.2 kmh 29.59 in1002.0 mb 0.02 in0.5 mm 0.00 in0.0 mm 0.02 in0.5 mm
03:10 PM 56.1°F13.4°C 53.2°F11.8°C 90% 16.8 mph S27.0 kmh S 21.9 mph35.2 kmh 29.59 in1002.0 mb 0.02 in0.5 mm 0.00 in0.0 mm 0.02 in0.5 mm
03:15 PM 56.1°F13.4°C 52.9°F11.6°C 89% 15.2 mph S24.5 kmh S 21.7 mph34.9 kmh 29.58 in1001.7 mb 0.02 in0.5 mm 0.00 in0.0 mm 0.02 in0.5 mm
03:20 PM 56.3°F13.5°C 53.1°F11.7°C 89% 13.4 mph S21.6 kmh S 21.7 mph34.9 kmh 29.58 in1001.7 mb 0.02 in0.5 mm 0.00 in0.0 mm 0.02 in0.5 mm
03:25 PM 56.5°F13.6°C 53.3°F11.8°C 89% 17.0 mph S27.4 kmh S 21.3 mph34.3 kmh 29.58 in1001.7 mb 0.02 in0.5 mm 0.00 in0.0 mm 0.02 in0.5 mm
03:30 PM 56.5°F13.6°C 53.0°F11.7°C 88% 16.8 mph S27.0 kmh S 23.5 mph37.8 kmh 29.58 in1001.7 mb 0.02 in0.5 mm 0.00 in0.0 mm 0.02 in0.5 mm
03:35 PM 56.5°F13.6°C 53.0°F11.7°C 88% 14.3 mph S23.0 kmh S 23.5 mph37.8 kmh 29.58 in1001.7 mb 0.02 in0.5 mm 0.00 in0.0 mm 0.02 in0.5 mm
03:40 PM 56.5°F13.6°C 53.0°F11.7°C 88% 14.8 mph S23.8 kmh S 19.5 mph31.4 kmh 29.59 in1002.0 mb 0.02 in0.5 mm 0.00 in0.0 mm 0.02 in0.5 mm
03:45 PM 56.5°F13.6°C 53.0°F11.7°C 88% 8.7 mph S14.0 kmh S 19.7 mph31.7 kmh 29.59 in1002.0 mb 0.02 in0.5 mm 0.00 in0.0 mm 0.02 in0.5 mm
03:50 PM 56.5°F13.6°C 53.0°F11.7°C 88% 15.2 mph S24.5 kmh S 19.7 mph31.7 kmh 29.59 in1002.0 mb 0.02 in0.5 mm 0.00 in0.0 mm 0.02 in0.5 mm
03:55 PM 56.5°F13.6°C 53.0°F11.7°C 88% 11.2 mph S18.0 kmh S 17.0 mph27.4 kmh 29.59 in1002.0 mb 0.00 in0.0 mm 0.00 in0.0 mm 0.02 in0.5 mm
04:00 PM 56.5°F13.6°C 53.0°F11.7°C 88% 17.4 mph S28.0 kmh S 18.3 mph29.5 kmh 29.58 in1001.7 mb 0.00 in0.0 mm 0.00 in0.0 mm 0.02 in0.5 mm
04:05 PM 56.5°F13.6°C 53.0°F11.7°C 88% 12.1 mph S19.5 kmh S 20.1 mph32.3 kmh 29.58 in1001.7 mb 0.00 in0.0 mm 0.00 in0.0 mm 0.02 in0.5 mm
04:10 PM 56.5°F13.6°C 53.0°F11.7°C 88% 7.6 mph S12.2 kmh S 20.1 mph32.3 kmh 29.59 in1002.0 mb 0.00 in0.0 mm 0.00 in0.0 mm 0.02 in0.5 mm
04:15 PM 56.5°F13.6°C 53.0°F11.7°C 88% 12.1 mph S19.5 kmh S 19.5 mph31.4 kmh 29.58 in1001.7 mb 0.00 in0.0 mm 0.00 in0.0 mm 0.02 in0.5 mm
04:20 PM 56.5°F13.6°C 53.0°F11.7°C 88% 11.4 mph S18.3 kmh S 21.5 mph34.6 kmh 29.58 in1001.7 mb 0.00 in0.0 mm 0.00 in0.0 mm 0.02 in0.5 mm
04:25 PM 56.5°F13.6°C 52.6°F11.4°C 87% 11.6 mph S18.7 kmh S 21.5 mph34.6 kmh 29.58 in1001.7 mb 0.00 in0.0 mm 0.00 in0.0 mm 0.02 in0.5 mm
04:30 PM 56.5°F13.6°C 53.0°F11.7°C 88% 14.5 mph S23.3 kmh S 23.3 mph37.5 kmh 29.58 in1001.7 mb 0.00 in0.0 mm 0.00 in0.0 mm 0.02 in0.5 mm
04:35 PM 56.5°F13.6°C 53.0°F11.7°C 88% 11.4 mph S18.3 kmh S 23.3 mph37.5 kmh 29.59 in1002.0 mb 0.00 in0.0 mm 0.00 in0.0 mm 0.02 in0.5 mm
04:40 PM 56.5°F13.6°C 53.0°F11.7°C 88% 6.7 mph S10.8 kmh S 20.6 mph33.2 kmh 29.59 in1002.0 mb 0.00 in0.0 mm 0.00 in0.0 mm 0.02 in0.5 mm
04:45 PM 56.5°F13.6°C 53.0°F11.7°C 88% 19.0 mph S30.6 kmh S 21.3 mph34.3 kmh 29.59 in1002.0 mb 0.00 in0.0 mm 0.00 in0.0 mm 0.02 in0.5 mm
04:50 PM 56.5°F13.6°C 53.0°F11.7°C 88% 13.4 mph S21.6 kmh S 21.3 mph34.3 kmh 29.59 in1002.0 mb 0.00 in0.0 mm 0.00 in0.0 mm 0.02 in0.5 mm
04:55 PM 56.5°F13.6°C 53.0°F11.7°C 88% 9.8 mph S15.8 kmh S 21.7 mph34.9 kmh 29.59 in1002.0 mb 0.00 in0.0 mm 0.00 in0.0 mm 0.02 in0.5 mm
05:00 PM 56.3°F13.5°C 52.8°F11.6°C 88% 12.5 mph S20.1 kmh S 21.7 mph34.9 kmh 29.59 in1002.0 mb 0.00 in0.0 mm 0.00 in0.0 mm 0.02 in0.5 mm
05:05 PM 56.3°F13.5°C 52.8°F11.6°C 88% 13.4 mph S21.6 kmh S 19.9 mph32.0 kmh 29.60 in1002.4 mb 0.00 in0.0 mm 0.00 in0.0 mm 0.02 in0.5 mm
05:10 PM 56.1°F13.4°C 52.6°F11.4°C 88% 12.3 mph S19.8 kmh S 20.1 mph32.3 kmh 29.60 in1002.4 mb 0.00 in0.0 mm 0.00 in0.0 mm 0.02 in0.5 mm
05:15 PM 56.1°F13.4°C 52.3°F11.3°C 87% 13.4 mph S21.6 kmh S 20.1 mph32.3 kmh 29.60 in1002.4 mb 0.00 in0.0 mm 0.00 in0.0 mm 0.02 in0.5 mm
05:20 PM 55.9°F13.3°C 52.1°F11.2°C 87% 4.5 mph S7.2 kmh S 17.9 mph28.8 kmh 29.60 in1002.4 mb 0.00 in0.0 mm 0.00 in0.0 mm 0.02 in0.5 mm
05:25 PM 55.9°F13.3°C 52.1°F11.2°C 87% 9.2 mph S14.8 kmh S 19.0 mph30.6 kmh 29.61 in1002.7 mb 0.00 in0.0 mm 0.00 in0.0 mm 0.02 in0.5 mm
05:30 PM 55.9°F13.3°C 52.1°F11.2°C 87% 16.8 mph S27.0 kmh S 20.4 mph32.8 kmh 29.61 in1002.7 mb 0.00 in0.0 mm 0.00 in0.0 mm 0.02 in0.5 mm
05:35 PM 55.9°F13.3°C 52.1°F11.2°C 87% 8.9 mph S14.3 kmh S 20.4 mph32.8 kmh 29.61 in1002.7 mb 0.00 in0.0 mm 0.00 in0.0 mm 0.02 in0.5 mm
05:40 PM 55.8°F13.2°C 51.6°F10.9°C 86% 12.3 mph S19.8 kmh S 18.8 mph30.3 kmh 29.61 in1002.7 mb 0.00 in0.0 mm 0.00 in0.0 mm 0.02 in0.5 mm
05:45 PM 55.9°F13.3°C 51.8°F11.0°C 86% 11.9 mph S19.2 kmh S 19.0 mph30.6 kmh 29.61 in1002.7 mb 0.00 in0.0 mm 0.00 in0.0 mm 0.02 in0.5 mm
05:50 PM 55.8°F13.2°C 51.6°F10.9°C 86% 8.1 mph SSW13.0 kmh SSW 19.7 mph31.7 kmh 29.61 in1002.7 mb 0.00 in0.0 mm 0.00 in0.0 mm 0.02 in0.5 mm
05:55 PM 55.8°F13.2°C 51.6°F10.9°C 86% 13.0 mph SSW20.9 kmh SSW 20.6 mph33.2 kmh 29.61 in1002.7 mb 0.00 in0.0 mm 0.00 in0.0 mm 0.02 in0.5 mm
06:00 PM 55.8°F13.2°C 51.6°F10.9°C 86% 8.3 mph SSW13.4 kmh SSW 20.6 mph33.2 kmh 29.61 in1002.7 mb 0.00 in0.0 mm 0.00 in0.0 mm 0.02 in0.5 mm
06:05 PM 55.6°F13.1°C 51.4°F10.8°C 86% 10.7 mph SSW17.2 kmh SSW 19.0 mph30.6 kmh 29.61 in1002.7 mb 0.00 in0.0 mm 0.00 in0.0 mm 0.02 in0.5 mm
06:10 PM 55.4°F13.0°C 50.9°F10.5°C 85% 8.9 mph S14.3 kmh S 18.1 mph29.1 kmh 29.61 in1002.7 mb 0.00 in0.0 mm 0.00 in0.0 mm 0.02 in0.5 mm
06:15 PM 55.2°F12.9°C 51.0°F10.6°C 86% 14.5 mph S23.3 kmh S 17.4 mph28.0 kmh 29.61 in1002.7 mb 0.00 in0.0 mm 0.00 in0.0 mm 0.02 in0.5 mm
06:20 PM 55.2°F12.9°C 51.0°F10.6°C 86% 6.9 mph SSW11.1 kmh SSW 16.1 mph25.9 kmh 29.62 in1003.0 mb 0.00 in0.0 mm 0.00 in0.0 mm 0.02 in0.5 mm
06:25 PM 55.2°F12.9°C 51.0°F10.6°C 86% 10.1 mph SSW16.3 kmh SSW 20.4 mph32.8 kmh 29.61 in1002.7 mb 0.00 in0.0 mm 0.00 in0.0 mm 0.02 in0.5 mm
06:30 PM 55.0°F12.8°C 50.9°F10.5°C 86% 8.5 mph S13.7 kmh S 20.4 mph32.8 kmh 29.62 in1003.0 mb 0.00 in0.0 mm 0.00 in0.0 mm 0.02 in0.5 mm
06:35 PM 54.9°F12.7°C 50.7°F10.4°C 86% 5.4 mph S8.7 kmh S 16.3 mph26.2 kmh 29.62 in1003.0 mb 0.00 in0.0 mm 0.00 in0.0 mm 0.02 in0.5 mm
06:40 PM 54.9°F12.7°C 50.4°F10.2°C 85% 4.0 mph S6.4 kmh S 15.2 mph24.5 kmh 29.63 in1003.4 mb 0.00 in0.0 mm 0.00 in0.0 mm 0.02 in0.5 mm
06:45 PM 54.9°F12.7°C 50.4°F10.2°C 85% 4.0 mph S6.4 kmh S 15.2 mph24.5 kmh 29.63 in1003.4 mb 0.00 in0.0 mm 0.00 in0.0 mm 0.02 in0.5 mm
06:50 PM 54.7°F12.6°C 50.2°F10.1°C 85% 1.1 mph SE1.8 kmh SE 9.6 mph15.4 kmh 29.63 in1003.4 mb 0.00 in0.0 mm 0.00 in0.0 mm 0.02 in0.5 mm
06:55 PM 54.7°F12.6°C 49.9°F9.9°C 84% 6.7 mph S10.8 kmh S 14.5 mph23.3 kmh 29.63 in1003.4 mb 0.00 in0.0 mm 0.00 in0.0 mm 0.02 in0.5 mm
07:00 PM 54.7°F12.6°C 49.9°F9.9°C 84% 6.3 mph S10.1 kmh S 14.5 mph23.3 kmh 29.63 in1003.4 mb 0.00 in0.0 mm 0.00 in0.0 mm 0.02 in0.5 mm
07:05 PM 54.7°F12.6°C 49.9°F9.9°C 84% 3.4 mph S5.5 kmh S 10.5 mph16.9 kmh 29.63 in1003.4 mb 0.00 in0.0 mm 0.00 in0.0 mm 0.02 in0.5 mm
07:10 PM 54.7°F12.6°C 49.9°F9.9°C 84% 1.6 mph SE2.6 kmh SE 6.7 mph10.8 kmh 29.64 in1003.7 mb 0.00 in0.0 mm 0.00 in0.0 mm 0.02 in0.5 mm
07:15 PM 54.5°F12.5°C 49.7°F9.8°C 84% 2.7 mph ESE4.3 kmh ESE 8.1 mph13.0 kmh 29.64 in1003.7 mb 0.00 in0.0 mm 0.00 in0.0 mm 0.02 in0.5 mm
07:20 PM 54.3°F12.4°C 49.5°F9.7°C 84% Calm Calm 8.1 mph13.0 kmh 29.64 in1003.7 mb 0.00 in0.0 mm 0.00 in0.0 mm 0.02 in0.5 mm
07:25 PM 54.1°F12.3°C 49.4°F9.7°C 84% 3.4 mph ESE5.5 kmh ESE 4.7 mph7.6 kmh 29.64 in1003.7 mb 0.00 in0.0 mm 0.00 in0.0 mm 0.02 in0.5 mm
07:30 PM 54.0°F12.2°C 49.2°F9.6°C 84% 2.0 mph ESE3.2 kmh ESE 4.7 mph7.6 kmh 29.64 in1003.7 mb 0.00 in0.0 mm 0.00 in0.0 mm 0.02 in0.5 mm
07:35 PM 54.0°F12.2°C 49.2°F9.6°C 84% 2.7 mph ESE4.3 kmh ESE 5.4 mph8.7 kmh 29.64 in1003.7 mb 0.00 in0.0 mm 0.00 in0.0 mm 0.02 in0.5 mm
07:40 PM 54.0°F12.2°C 49.2°F9.6°C 84% 6.0 mph E9.7 kmh E 7.6 mph12.2 kmh 29.64 in1003.7 mb 0.00 in0.0 mm 0.00 in0.0 mm 0.02 in0.5 mm
07:45 PM 54.0°F12.2°C 49.2°F9.6°C 84% 2.0 mph E3.2 kmh E 10.3 mph16.6 kmh 29.64 in1003.7 mb 0.00 in0.0 mm 0.00 in0.0 mm 0.02 in0.5 mm
07:50 PM 54.0°F12.2°C 49.2°F9.6°C 84% 6.5 mph NE10.5 kmh NE 10.3 mph16.6 kmh 29.64 in1003.7 mb 0.00 in0.0 mm 0.00 in0.0 mm 0.02 in0.5 mm
07:55 PM 54.0°F12.2°C 49.2°F9.6°C 84% 2.9 mph NE4.7 kmh NE 9.2 mph14.8 kmh 29.64 in1003.7 mb 0.00 in0.0 mm 0.00 in0.0 mm 0.02 in0.5 mm
08:00 PM 54.0°F12.2°C 49.2°F9.6°C 84% 6.9 mph ENE11.1 kmh ENE 14.3 mph23.0 kmh 29.64 in1003.7 mb 0.00 in0.0 mm 0.00 in0.0 mm 0.02 in0.5 mm
08:05 PM 54.0°F12.2°C 49.2°F9.6°C 84% 3.6 mph ENE5.8 kmh ENE 10.3 mph16.6 kmh 29.64 in1003.7 mb 0.00 in0.0 mm 0.00 in0.0 mm 0.02 in0.5 mm
08:10 PM 53.8°F12.1°C 49.0°F9.4°C 84% 2.2 mph NE3.5 kmh NE 10.3 mph16.6 kmh 29.64 in1003.7 mb 0.00 in0.0 mm 0.00 in0.0 mm 0.02 in0.5 mm
08:15 PM 53.8°F12.1°C 49.0°F9.4°C 84% 2.2 mph E3.5 kmh E 9.4 mph15.1 kmh 29.65 in1004.1 mb 0.00 in0.0 mm 0.00 in0.0 mm 0.02 in0.5 mm
08:20 PM 53.6°F12.0°C 48.9°F9.4°C 84% Calm Calm 5.8 mph9.3 kmh 29.65 in1004.1 mb 0.00 in0.0 mm 0.00 in0.0 mm 0.02 in0.5 mm
08:25 PM 53.4°F11.9°C 48.7°F9.3°C 84% 2.7 mph E4.3 kmh E 3.8 mph6.1 kmh 29.65 in1004.1 mb 0.00 in0.0 mm 0.00 in0.0 mm 0.02 in0.5 mm
08:30 PM 53.4°F11.9°C 48.7°F9.3°C 84% Calm Calm 6.0 mph9.7 kmh 29.66 in1004.4 mb 0.00 in0.0 mm 0.00 in0.0 mm 0.02 in0.5 mm
08:35 PM 53.2°F11.8°C 48.5°F9.2°C 84% 2.2 mph NE3.5 kmh NE 6.3 mph10.1 kmh 29.66 in1004.4 mb 0.00 in0.0 mm 0.00 in0.0 mm 0.02 in0.5 mm
08:40 PM 53.2°F11.8°C 48.8°F9.3°C 85% 2.7 mph NE4.3 kmh NE 6.3 mph10.1 kmh 29.66 in1004.4 mb 0.00 in0.0 mm 0.00 in0.0 mm 0.02 in0.5 mm
08:45 PM 53.2°F11.8°C 48.8°F9.3°C 85% 6.0 mph S9.7 kmh S 6.3 mph10.1 kmh 29.66 in1004.4 mb 0.00 in0.0 mm 0.00 in0.0 mm 0.02 in0.5 mm
08:50 PM 53.2°F11.8°C 48.8°F9.3°C 85% 4.7 mph SSW7.6 kmh SSW 13.0 mph20.9 kmh 29.66 in1004.4 mb 0.00 in0.0 mm 0.00 in0.0 mm 0.02 in0.5 mm
08:55 PM 53.4°F11.9°C 48.7°F9.3°C 84% 5.8 mph SSW9.3 kmh SSW 13.0 mph20.9 kmh 29.66 in1004.4 mb 0.00 in0.0 mm 0.00 in0.0 mm 0.02 in0.5 mm
09:00 PM 53.4°F11.9°C 48.7°F9.3°C 84% 5.4 mph SSW8.7 kmh SSW 12.3 mph19.8 kmh 29.67 in1004.7 mb 0.00 in0.0 mm 0.00 in0.0 mm 0.02 in0.5 mm
09:05 PM 53.6°F12.0°C 48.9°F9.4°C 84% 4.5 mph SSW7.2 kmh SSW 13.2 mph21.2 kmh 29.67 in1004.7 mb 0.00 in0.0 mm 0.00 in0.0 mm 0.02 in0.5 mm
09:10 PM 53.6°F12.0°C 48.9°F9.4°C 84% 6.9 mph SSW11.1 kmh SSW 14.1 mph22.7 kmh 29.67 in1004.7 mb 0.00 in0.0 mm 0.00 in0.0 mm 0.02 in0.5 mm
09:15 PM 53.6°F12.0°C 48.9°F9.4°C 84% 4.7 mph SSW7.6 kmh SSW 14.1 mph22.7 kmh 29.67 in1004.7 mb 0.00 in0.0 mm 0.00 in0.0 mm 0.02 in0.5 mm
09:20 PM 53.4°F11.9°C 49.0°F9.4°C 85% 10.1 mph SSW16.3 kmh SSW 14.5 mph23.3 kmh 29.67 in1004.7 mb 0.00 in0.0 mm 0.00 in0.0 mm 0.02 in0.5 mm
09:25 PM 53.4°F11.9°C 49.0°F9.4°C 85% 11.6 mph SSW18.7 kmh SSW 17.7 mph28.5 kmh 29.67 in1004.7 mb 0.00 in0.0 mm 0.00 in0.0 mm 0.02 in0.5 mm
09:30 PM 53.4°F11.9°C 49.0°F9.4°C 85% 15.2 mph SSW24.5 kmh SSW 19.7 mph31.7 kmh 29.67 in1004.7 mb 0.00 in0.0 mm 0.00 in0.0 mm 0.02 in0.5 mm
09:35 PM 53.4°F11.9°C 49.0°F9.4°C 85% 13.4 mph S21.6 kmh S 19.7 mph31.7 kmh 29.67 in1004.7 mb 0.00 in0.0 mm 0.00 in0.0 mm 0.02 in0.5 mm
09:40 PM 53.4°F11.9°C 49.3°F9.6°C 86% 11.0 mph S17.7 kmh S 18.3 mph29.5 kmh 29.68 in1005.1 mb 0.00 in0.0 mm 0.00 in0.0 mm 0.02 in0.5 mm
09:45 PM 53.2°F11.8°C 49.1°F9.5°C 86% 5.8 mph S9.3 kmh S 17.4 mph28.0 kmh 29.68 in1005.1 mb 0.00 in0.0 mm 0.00 in0.0 mm 0.02 in0.5 mm
09:50 PM 53.2°F11.8°C 49.1°F9.5°C 86% 17.0 mph S27.4 kmh S 20.1 mph32.3 kmh 29.68 in1005.1 mb 0.00 in0.0 mm 0.00 in0.0 mm 0.02 in0.5 mm
09:55 PM 53.2°F11.8°C 49.1°F9.5°C 86% 12.3 mph SSW19.8 kmh SSW 20.1 mph32.3 kmh 29.67 in1004.7 mb 0.00 in0.0 mm 0.00 in0.0 mm 0.02 in0.5 mm
10:00 PM 53.2°F11.8°C 49.4°F9.7°C 87% 12.1 mph SSW19.5 kmh SSW 18.1 mph29.1 kmh 29.68 in1005.1 mb 0.00 in0.0 mm 0.00 in0.0 mm 0.02 in0.5 mm
10:05 PM 53.2°F11.8°C 49.4°F9.7°C 87% 13.2 mph SSW21.2 kmh SSW 18.1 mph29.1 kmh 29.67 in1004.7 mb 0.00 in0.0 mm 0.00 in0.0 mm 0.02 in0.5 mm
10:10 PM 53.2°F11.8°C 49.4°F9.7°C 87% 7.4 mph SSW11.9 kmh SSW 18.1 mph29.1 kmh 29.67 in1004.7 mb 0.00 in0.0 mm 0.00 in0.0 mm 0.02 in0.5 mm
10:15 PM 53.4°F11.9°C 49.6°F9.8°C 87% 14.1 mph SSW22.7 kmh SSW 18.3 mph29.5 kmh 29.67 in1004.7 mb 0.00 in0.0 mm 0.00 in0.0 mm 0.02 in0.5 mm
10:20 PM 53.4°F11.9°C 49.3°F9.6°C 86% 13.6 mph SSW21.9 kmh SSW 19.7 mph31.7 kmh 29.68 in1005.1 mb 0.00 in0.0 mm 0.00 in0.0 mm 0.02 in0.5 mm
10:25 PM 53.4°F11.9°C 49.3°F9.6°C 86% 13.2 mph SSW21.2 kmh SSW 20.8 mph33.5 kmh 29.68 in1005.1 mb 0.00 in0.0 mm 0.00 in0.0 mm 0.02 in0.5 mm
10:30 PM 53.6°F12.0°C 49.5°F9.7°C 86% 13.6 mph SSW21.9 kmh SSW 20.8 mph33.5 kmh 29.68 in1005.1 mb 0.00 in0.0 mm 0.00 in0.0 mm 0.02 in0.5 mm
10:35 PM 53.8°F12.1°C 49.7°F9.8°C 86% 6.0 mph SSW9.7 kmh SSW 17.0 mph27.4 kmh 29.68 in1005.1 mb 0.00 in0.0 mm 0.00 in0.0 mm 0.02 in0.5 mm
10:40 PM 53.6°F12.0°C 49.2°F9.6°C 85% 7.8 mph SSW12.6 kmh SSW 17.0 mph27.4 kmh 29.68 in1005.1 mb 0.00 in0.0 mm 0.00 in0.0 mm 0.02 in0.5 mm
10:45 PM 53.6°F12.0°C 49.2°F9.6°C 85% 4.7 mph SSW7.6 kmh SSW 19.9 mph32.0 kmh 29.68 in1005.1 mb 0.00 in0.0 mm 0.00 in0.0 mm 0.02 in0.5 mm
10:50 PM 53.4°F11.9°C 49.0°F9.4°C 85% 7.6 mph SSW12.2 kmh SSW 19.9 mph32.0 kmh 29.68 in1005.1 mb 0.00 in0.0 mm 0.00 in0.0 mm 0.02 in0.5 mm
10:55 PM 53.6°F12.0°C 49.2°F9.6°C 85% 7.2 mph SSW11.6 kmh SSW 17.0 mph27.4 kmh 29.68 in1005.1 mb 0.00 in0.0 mm 0.00 in0.0 mm 0.02 in0.5 mm
11:00 PM 53.4°F11.9°C 49.0°F9.4°C 85% 12.5 mph S20.1 kmh S 16.3 mph26.2 kmh 29.68 in1005.1 mb 0.00 in0.0 mm 0.00 in0.0 mm 0.02 in0.5 mm
11:05 PM 53.4°F11.9°C 49.0°F9.4°C 85% 12.1 mph S19.5 kmh S 16.3 mph26.2 kmh 29.68 in1005.1 mb 0.00 in0.0 mm 0.00 in0.0 mm 0.02 in0.5 mm
11:10 PM 53.8°F12.1°C 49.4°F9.7°C 85% 11.9 mph S19.2 kmh S 15.2 mph24.5 kmh 29.68 in1005.1 mb 0.00 in0.0 mm 0.00 in0.0 mm 0.02 in0.5 mm
11:15 PM 53.8°F12.1°C 49.4°F9.7°C 85% 3.1 mph S5.0 kmh S 14.3 mph23.0 kmh 29.68 in1005.1 mb 0.00 in0.0 mm 0.00 in0.0 mm 0.02 in0.5 mm
11:20 PM 53.8°F12.1°C 49.4°F9.7°C 85% 1.6 mph S2.6 kmh S 13.0 mph20.9 kmh 29.68 in1005.1 mb 0.00 in0.0 mm 0.00 in0.0 mm 0.02 in0.5 mm
11:25 PM 53.8°F12.1°C 49.4°F9.7°C 85% 4.9 mph S7.9 kmh S 14.5 mph23.3 kmh 29.68 in1005.1 mb 0.00 in0.0 mm 0.00 in0.0 mm 0.02 in0.5 mm
11:30 PM 53.8°F12.1°C 49.4°F9.7°C 85% 7.8 mph S12.6 kmh S 14.5 mph23.3 kmh 29.68 in1005.1 mb 0.00 in0.0 mm 0.00 in0.0 mm 0.02 in0.5 mm
11:35 PM 53.8°F12.1°C 49.4°F9.7°C 85% 7.4 mph SSW11.9 kmh SSW 14.1 mph22.7 kmh 29.68 in1005.1 mb 0.00 in0.0 mm 0.00 in0.0 mm 0.02 in0.5 mm
11:40 PM 53.8°F12.1°C 49.4°F9.7°C 85% 7.2 mph SSW11.6 kmh SSW 14.1 mph22.7 kmh 29.69 in1005.4 mb 0.00 in0.0 mm 0.00 in0.0 mm 0.02 in0.5 mm
11:45 PM 53.8°F12.1°C 49.4°F9.7°C 85% 7.6 mph SSW12.2 kmh SSW 15.9 mph25.6 kmh 29.68 in1005.1 mb 0.00 in0.0 mm 0.00 in0.0 mm 0.02 in0.5 mm
11:50 PM 53.8°F12.1°C 49.4°F9.7°C 85% 12.1 mph S19.5 kmh S 15.9 mph25.6 kmh 29.68 in1005.1 mb 0.00 in0.0 mm 0.00 in0.0 mm 0.02 in0.5 mm
11:55 PM 53.8°F12.1°C 49.4°F9.7°C 85% 9.6 mph SSW15.4 kmh SSW 13.2 mph21.2 kmh 29.68 in1005.1 mb 0.00 in0.0 mm 0.00 in0.0 mm 0.02 in0.5 mm